createdAt,value
2019-05-26T00:01:30.783Z,80.50
2019-05-26T00:04:02.392Z,80.30
2019-05-26T00:06:32.948Z,80.70
2019-05-26T00:09:03.634Z,80.30
2019-05-26T00:11:34.053Z,80.00
2019-05-26T00:14:05.117Z,80.00
2019-05-26T00:16:36.053Z,79.90
2019-05-26T00:19:06.677Z,80.00
2019-05-26T00:21:37.253Z,81.50
2019-05-26T00:24:07.863Z,83.20
2019-05-26T00:26:40.739Z,83.60
2019-05-26T00:29:14.033Z,84.10
2019-05-26T00:31:44.221Z,84.70
2019-05-26T00:34:15.161Z,85.30
2019-05-26T00:36:46.431Z,85.50
2019-05-26T00:39:16.651Z,86.20
2019-05-26T00:41:47.175Z,86.60
2019-05-26T00:44:17.673Z,87.50
2019-05-26T00:46:48.080Z,87.80
2019-05-26T00:49:18.353Z,87.70
2019-05-26T00:51:49.105Z,88.40
2019-05-26T00:54:19.515Z,89.10
2019-05-26T00:56:49.831Z,90.30
2019-05-26T00:59:21.038Z,91.40
2019-05-26T01:01:52.524Z,91.20
2019-05-26T01:04:26.968Z,91.80
2019-05-26T01:07:01.609Z,92.80
2019-05-26T01:09:33.137Z,93.10
2019-05-26T01:12:03.439Z,93.70
2019-05-26T01:14:34.031Z,94.90
2019-05-26T01:17:04.202Z,94.60
2019-05-26T01:19:34.581Z,93.90
2019-05-26T01:22:05.106Z,94.80
2019-05-26T01:24:35.876Z,94.90
2019-05-26T01:27:06.363Z,95.60
2019-05-26T01:29:36.995Z,97.10
2019-05-26T01:32:08.460Z,98.60
2019-05-26T01:34:39.487Z,99.20
2019-05-26T01:37:15.349Z,99.40
2019-05-26T01:39:45.422Z,99.90
2019-05-26T01:42:18.801Z,99.90
2019-05-26T01:44:48.918Z,99.90
2019-05-26T01:47:19.510Z,99.90
2019-05-26T01:49:50.093Z,99.90
2019-05-26T01:52:20.454Z,99.90
2019-05-26T01:54:51.034Z,99.90
2019-05-26T01:57:21.623Z,99.90
2019-05-26T01:59:51.907Z,99.90
2019-05-26T02:02:22.691Z,99.90
2019-05-26T02:04:53.370Z,99.90
2019-05-26T02:07:23.745Z,99.90
2019-05-26T02:09:57.283Z,99.90
2019-05-26T02:12:28.910Z,99.90
2019-05-26T02:14:59.833Z,99.90
2019-05-26T02:17:30.956Z,99.90
2019-05-26T02:20:01.705Z,99.90
2019-05-26T02:22:32.524Z,99.90
2019-05-26T02:25:03.123Z,99.90
2019-05-26T02:27:33.764Z,99.90
2019-05-26T02:30:04.626Z,99.90
2019-05-26T02:32:35.015Z,99.90
2019-05-26T02:35:06.120Z,99.90
2019-05-26T02:37:36.527Z,99.90
2019-05-26T02:40:08.174Z,99.90
2019-05-26T02:42:40.082Z,99.90
2019-05-26T02:45:14.245Z,99.90
2019-05-26T02:47:46.076Z,99.90
2019-05-26T02:50:17.292Z,99.90
2019-05-26T02:52:48.338Z,99.90
2019-05-26T02:55:19.181Z,99.90
2019-05-26T02:57:49.555Z,99.90
2019-05-26T03:00:39.171Z,99.90
2019-05-26T03:03:11.221Z,99.90
2019-05-26T03:05:44.728Z,99.90
2019-05-26T03:08:16.383Z,99.90
2019-05-26T03:10:48.817Z,99.90
2019-05-26T03:13:19.457Z,99.90
2019-05-26T03:15:50.357Z,99.90
2019-05-26T03:18:21.215Z,99.90
2019-05-26T03:20:52.345Z,99.90
2019-05-26T03:23:22.811Z,99.90
2019-05-26T03:25:58.180Z,99.90
2019-05-26T03:28:28.477Z,99.90
2019-05-26T03:30:58.879Z,99.90
2019-05-26T03:33:29.611Z,99.90
2019-05-26T03:36:00.181Z,99.90
2019-05-26T03:38:30.569Z,99.90
2019-05-26T03:41:00.934Z,99.90
2019-05-26T03:43:31.128Z,99.90
2019-05-26T03:46:19.697Z,99.90
2019-05-26T03:48:51.165Z,99.90
2019-05-26T03:51:21.900Z,99.90
2019-05-26T03:53:52.298Z,99.90
2019-05-26T03:56:22.628Z,99.90
2019-05-26T03:58:53.161Z,99.90
2019-05-26T04:01:23.807Z,99.90
2019-05-26T04:03:54.440Z,97.10
2019-05-26T04:06:25.233Z,89.50
2019-05-26T04:08:55.377Z,83.30
2019-05-26T04:11:25.930Z,77.20
2019-05-26T04:13:55.992Z,73.70
2019-05-26T04:16:26.115Z,70.80
2019-05-26T04:18:56.730Z,67.50
2019-05-26T04:21:27.522Z,64.60
2019-05-26T04:23:57.838Z,60.60
2019-05-26T04:26:28.177Z,58.40
2019-05-26T04:28:58.585Z,57.30
2019-05-26T04:31:29.152Z,54.50
2019-05-26T04:33:59.565Z,53.30
2019-05-26T04:36:29.857Z,53.60
2019-05-26T04:39:00.280Z,51.70
2019-05-26T04:41:31.018Z,51.90
2019-05-26T04:44:01.592Z,52.30
2019-05-26T04:46:32.694Z,51.40
2019-05-26T04:49:03.356Z,52.10
2019-05-26T04:51:34.091Z,55.10
2019-05-26T04:54:06.125Z,58.00
2019-05-26T04:56:37.469Z,60.60
2019-05-26T04:59:08.041Z,61.80
2019-05-26T05:01:38.705Z,63.00
2019-05-26T05:04:09.030Z,65.40
2019-05-26T05:06:39.811Z,67.20
2019-05-26T05:09:10.147Z,68.00
2019-05-26T05:11:40.875Z,70.00
2019-05-26T05:14:11.302Z,70.80
2019-05-26T05:16:41.474Z,70.10
2019-05-26T05:19:15.474Z,70.60
2019-05-26T05:21:45.858Z,72.00
2019-05-26T05:24:16.386Z,71.80
2019-05-26T05:26:46.543Z,71.20
2019-05-26T05:29:16.831Z,71.40
2019-05-26T05:31:46.910Z,71.30
2019-05-26T05:34:17.165Z,71.50
2019-05-26T05:36:48.083Z,72.30
2019-05-26T05:39:18.647Z,72.60
2019-05-26T05:41:50.748Z,72.20
2019-05-26T05:44:21.193Z,71.60
2019-05-26T05:46:51.343Z,70.90
2019-05-26T05:49:22.017Z,71.40
2019-05-26T05:51:53.365Z,71.10
2019-05-26T05:54:24.050Z,70.50
2019-05-26T05:56:55.778Z,70.30
2019-05-26T05:59:26.063Z,71.20
2019-05-26T06:01:56.687Z,72.20
2019-05-26T06:04:26.910Z,72.30
2019-05-26T06:06:57.468Z,72.60
2019-05-26T06:09:28.619Z,72.60
2019-05-26T06:11:59.061Z,73.40
2019-05-26T06:14:29.493Z,73.20
2019-05-26T06:17:00.761Z,72.90
2019-05-26T06:19:32.608Z,72.70
2019-05-26T06:22:03.649Z,73.10
2019-05-26T06:24:34.691Z,73.40
2019-05-26T06:27:05.470Z,72.80
2019-05-26T06:29:36.356Z,72.40
2019-05-26T06:32:09.985Z,72.30
2019-05-26T06:34:40.779Z,72.50
2019-05-26T06:37:11.471Z,72.30
2019-05-26T06:39:42.143Z,71.90
2019-05-26T06:42:13.270Z,71.60
2019-05-26T06:44:53.610Z,71.10
2019-05-26T06:47:16.292Z,69.60
2019-05-26T06:49:52.818Z,70.00
2019-05-26T06:52:23.612Z,70.10
2019-05-26T06:54:54.244Z,69.80
2019-05-26T06:57:25.101Z,69.30
2019-05-26T06:59:55.814Z,69.00
2019-05-26T07:02:26.624Z,69.10
2019-05-26T07:04:57.840Z,69.10
2019-05-26T07:07:28.812Z,69.60
2019-05-26T07:09:59.551Z,69.10
2019-05-26T07:12:30.492Z,70.50
2019-05-26T07:15:03.356Z,69.20
2019-05-26T07:17:34.508Z,68.70
2019-05-26T07:20:06.837Z,67.10
2019-05-26T07:22:38.274Z,66.20
2019-05-26T07:25:09.757Z,66.30
2019-05-26T07:27:40.151Z,65.80
2019-05-26T07:30:13.536Z,64.80
2019-05-26T07:32:44.638Z,65.10
2019-05-26T07:35:15.402Z,65.20
2019-05-26T07:37:46.836Z,65.00
2019-05-26T07:40:18.369Z,64.40
2019-05-26T07:42:48.634Z,64.80
2019-05-26T07:45:18.999Z,64.90
2019-05-26T07:47:49.552Z,63.50
2019-05-26T07:50:19.870Z,63.10
2019-05-26T07:52:50.008Z,62.40
2019-05-26T07:55:20.640Z,62.00
2019-05-26T07:57:51.530Z,63.50
2019-05-26T08:00:22.242Z,63.10
2019-05-26T08:02:52.655Z,63.40
2019-05-26T08:05:24.338Z,61.70
2019-05-26T08:08:09.566Z,61.70
2019-05-26T08:10:26.867Z,61.30
2019-05-26T08:12:57.277Z,61.30
2019-05-26T08:15:27.451Z,61.10
2019-05-26T08:17:57.824Z,60.70
2019-05-26T08:20:28.390Z,60.20
2019-05-26T08:22:58.443Z,58.80
2019-05-26T08:25:29.068Z,59.60
2019-05-26T08:28:00.103Z,59.30
2019-05-26T08:30:30.362Z,58.80
2019-05-26T08:33:00.554Z,58.30
2019-05-26T08:35:44.141Z,58.50
2019-05-26T08:38:21.771Z,57.50
2019-05-26T08:40:52.569Z,57.40
2019-05-26T08:43:23.246Z,55.70
2019-05-26T08:45:54.517Z,55.60
2019-05-26T08:48:30.044Z,54.90
2019-05-26T08:51:01.345Z,56.20
2019-05-26T08:53:31.995Z,55.50
2019-05-26T08:56:04.722Z,55.50
2019-05-26T08:58:34.942Z,55.50
2019-05-26T09:01:05.497Z,54.30
2019-05-26T09:03:35.873Z,52.70
2019-05-26T09:06:06.218Z,53.60
2019-05-26T09:08:36.517Z,52.00
2019-05-26T09:11:08.303Z,52.00
2019-05-26T09:13:38.821Z,52.00
2019-05-26T09:16:09.489Z,53.70
2019-05-26T09:18:39.916Z,53.50
2019-05-26T09:21:10.561Z,53.20
2019-05-26T09:23:40.950Z,52.60
2019-05-26T09:26:15.419Z,51.20
2019-05-26T09:28:46.446Z,49.20
2019-05-26T09:31:16.953Z,48.00
2019-05-26T09:33:47.700Z,48.70
2019-05-26T09:36:20.185Z,47.40
2019-05-26T09:38:50.817Z,46.90
2019-05-26T09:41:21.663Z,45.60
2019-05-26T09:43:55.629Z,44.30
2019-05-26T09:46:27.527Z,44.80
2019-05-26T09:49:00.820Z,46.20
2019-05-26T09:51:30.091Z,46.40
2019-05-26T09:54:02.216Z,45.80
2019-05-26T09:56:34.116Z,45.00
2019-05-26T09:59:04.649Z,45.50
2019-05-26T10:01:35.485Z,45.30
2019-05-26T10:04:06.118Z,45.00
2019-05-26T10:06:38.373Z,43.70
2019-05-26T10:09:09.269Z,43.10
2019-05-26T10:11:39.949Z,42.60
2019-05-26T10:14:10.658Z,43.00
2019-05-26T10:16:41.317Z,42.70
2019-05-26T10:19:12.361Z,43.50
2019-05-26T10:21:42.982Z,42.70
2019-05-26T10:24:14.178Z,42.50
2019-05-26T10:26:44.763Z,42.10
2019-05-26T10:29:15.493Z,41.90
2019-05-26T10:31:45.793Z,42.40
2019-05-26T10:34:15.923Z,40.40
2019-05-26T10:36:46.225Z,40.50
2019-05-26T10:39:17.305Z,39.60
2019-05-26T10:41:48.029Z,39.80
2019-05-26T10:44:18.374Z,38.10
2019-05-26T10:46:49.525Z,39.50
2019-05-26T10:49:20.082Z,40.80
2019-05-26T10:51:51.197Z,40.10
2019-05-26T10:54:21.485Z,40.70
2019-05-26T10:56:52.755Z,42.00
2019-05-26T10:59:23.187Z,42.60
2019-05-26T11:01:53.677Z,42.60
2019-05-26T11:04:24.953Z,42.90
2019-05-26T11:06:55.267Z,43.80
2019-05-26T11:09:27.198Z,44.00
2019-05-26T11:11:58.096Z,43.60
2019-05-26T11:14:28.776Z,43.70
2019-05-26T11:17:05.726Z,43.00
2019-05-26T11:19:36.861Z,43.20
2019-05-26T11:22:07.565Z,42.70
2019-05-26T11:24:37.935Z,42.80
2019-05-26T11:27:12.140Z,41.50
2019-05-26T11:29:40.958Z,39.70
2019-05-26T11:32:11.888Z,40.20
2019-05-26T11:34:42.886Z,41.00
2019-05-26T11:37:15.054Z,40.50
2019-05-26T11:39:45.836Z,40.60
2019-05-26T11:42:16.577Z,40.50
2019-05-26T11:44:47.089Z,39.30
2019-05-26T11:47:18.174Z,38.70
2019-05-26T11:49:48.688Z,38.30
2019-05-26T11:52:22.668Z,38.50
2019-05-26T11:54:54.966Z,37.60
2019-05-26T11:57:25.594Z,36.40
2019-05-26T11:59:57.795Z,38.40
2019-05-26T12:02:32.180Z,38.70
2019-05-26T12:05:04.366Z,38.20
2019-05-26T12:07:43.178Z,37.10
2019-05-26T12:10:14.362Z,37.40
2019-05-26T12:12:46.579Z,36.50
2019-05-26T12:15:25.478Z,35.60
2019-05-26T12:17:56.553Z,35.70
2019-05-26T12:20:37.914Z,36.40
2019-05-26T12:23:14.158Z,36.20
2019-05-26T12:25:52.185Z,36.50
2019-05-26T12:28:37.051Z,36.80
2019-05-26T12:31:27.424Z,36.50
2019-05-26T12:34:06.564Z,36.70
2019-05-26T12:36:48.333Z,36.80
2019-05-26T12:39:25.081Z,35.20
2019-05-26T12:41:58.374Z,36.10
2019-05-26T12:44:49.143Z,36.20
2019-05-26T12:47:16.765Z,34.70
2019-05-26T12:49:48.410Z,34.70
2019-05-26T12:52:23.254Z,35.50
2019-05-26T12:54:54.096Z,35.50
2019-05-26T12:57:32.054Z,35.30
2019-05-26T13:00:23.704Z,35.70
2019-05-26T13:02:56.683Z,34.40
2019-05-26T13:05:35.208Z,34.20
2019-05-26T13:08:06.462Z,34.30
2019-05-26T13:10:59.310Z,35.00
2019-05-26T13:13:40.168Z,36.20
2019-05-26T13:16:12.308Z,34.20
2019-05-26T13:18:42.879Z,35.10
2019-05-26T13:21:24.113Z,35.60
2019-05-26T13:24:01.394Z,35.40
2019-05-26T13:26:54.231Z,35.60
2019-05-26T13:29:29.485Z,35.90
2019-05-26T13:32:03.633Z,36.20
2019-05-26T13:34:43.183Z,35.70
2019-05-26T13:37:19.386Z,34.90
2019-05-26T13:39:55.411Z,34.20
2019-05-26T13:42:33.515Z,33.80
2019-05-26T13:45:21.698Z,35.80
2019-05-26T13:47:47.916Z,35.90
2019-05-26T13:50:20.973Z,36.20
2019-05-26T13:52:53.205Z,35.40
2019-05-26T13:55:23.631Z,36.40
2019-05-26T13:57:53.831Z,34.40
2019-05-26T14:00:25.404Z,34.20
2019-05-26T14:02:56.102Z,33.70
2019-05-26T14:05:26.603Z,34.20
2019-05-26T14:07:57.053Z,33.80
2019-05-26T14:10:32.431Z,34.20
2019-05-26T14:13:07.525Z,33.30
2019-05-26T14:15:39.520Z,34.50
2019-05-26T14:18:10.905Z,34.80
2019-05-26T14:20:45.952Z,34.90
2019-05-26T14:23:16.181Z,34.60
2019-05-26T14:25:46.630Z,34.10
2019-05-26T14:28:17.081Z,34.70
2019-05-26T14:30:48.276Z,33.50
2019-05-26T14:33:19.417Z,32.40
2019-05-26T14:35:50.411Z,32.70
2019-05-26T14:38:21.177Z,33.10
2019-05-26T14:40:51.634Z,32.20
2019-05-26T14:43:22.051Z,32.00
2019-05-26T14:45:53.884Z,33.20
2019-05-26T14:48:25.244Z,31.80
2019-05-26T14:50:55.611Z,33.40
2019-05-26T14:53:27.324Z,33.00
2019-05-26T14:55:57.891Z,33.50
2019-05-26T14:58:28.103Z,34.10
2019-05-26T15:00:58.648Z,33.90
2019-05-26T15:03:29.007Z,34.00
2019-05-26T15:06:06.023Z,33.70
2019-05-26T15:08:31.703Z,32.60
2019-05-26T15:11:02.447Z,32.30
2019-05-26T15:13:43.327Z,31.90
2019-05-26T15:16:17.806Z,32.10
2019-05-26T15:18:47.949Z,32.50
2019-05-26T15:21:18.325Z,33.90
2019-05-26T15:23:49.666Z,34.50
2019-05-26T15:26:20.772Z,34.40
2019-05-26T15:28:50.952Z,34.90
2019-05-26T15:31:21.536Z,34.10
2019-05-26T15:33:58.703Z,34.20
2019-05-26T15:36:29.673Z,33.80
2019-05-26T15:39:00.348Z,33.60
2019-05-26T15:41:30.766Z,34.00
2019-05-26T15:44:01.412Z,33.30
2019-05-26T15:46:32.442Z,33.10
2019-05-26T15:49:02.893Z,33.90
2019-05-26T15:51:33.448Z,33.80
2019-05-26T15:54:04.174Z,35.30
2019-05-26T15:56:34.941Z,34.60
2019-05-26T15:59:05.825Z,35.50
2019-05-26T16:01:36.044Z,35.00
2019-05-26T16:04:06.561Z,34.40
2019-05-26T16:06:38.630Z,34.90
2019-05-26T16:09:09.025Z,34.70
2019-05-26T16:11:43.115Z,35.40
2019-05-26T16:14:15.244Z,35.40
2019-05-26T16:16:45.552Z,35.00
2019-05-26T16:19:16.334Z,35.00
2019-05-26T16:21:46.759Z,34.70
2019-05-26T16:24:17.898Z,35.60
2019-05-26T16:26:49.686Z,36.20
2019-05-26T16:29:19.975Z,36.70
2019-05-26T16:31:50.585Z,36.80
2019-05-26T16:34:20.975Z,37.70
2019-05-26T16:36:51.638Z,37.10
2019-05-26T16:39:36.139Z,36.70
2019-05-26T16:41:54.677Z,36.00
2019-05-26T16:44:25.751Z,35.10
2019-05-26T16:46:57.097Z,34.60
2019-05-26T16:49:27.443Z,34.40
2019-05-26T16:51:58.747Z,34.30
2019-05-26T16:54:29.596Z,33.60
2019-05-26T16:57:00.541Z,33.70
2019-05-26T16:59:31.123Z,35.10
2019-05-26T17:02:01.683Z,35.40
2019-05-26T17:04:32.372Z,35.50
2019-05-26T17:07:03.185Z,35.80
2019-05-26T17:09:34.065Z,36.50
2019-05-26T17:12:04.743Z,36.90
2019-05-26T17:14:35.456Z,37.20
2019-05-26T17:17:14.582Z,36.90
2019-05-26T17:19:38.295Z,36.50
2019-05-26T17:22:08.959Z,36.60
2019-05-26T17:24:39.428Z,37.10
2019-05-26T17:27:09.770Z,36.60
2019-05-26T17:29:40.344Z,36.90
2019-05-26T17:32:11.432Z,36.10
2019-05-26T17:34:42.430Z,36.20
2019-05-26T17:37:14.797Z,35.80
2019-05-26T17:39:46.228Z,36.20
2019-05-26T17:42:17.570Z,37.40
2019-05-26T17:44:51.281Z,38.20
2019-05-26T17:47:30.301Z,39.50
2019-05-26T17:49:54.479Z,40.60
2019-05-26T17:52:30.614Z,40.20
2019-05-26T17:55:05.645Z,41.10
2019-05-26T17:57:37.544Z,41.40
2019-05-26T18:02:46.326Z,41.60
2019-05-26T18:05:20.042Z,42.00
2019-05-26T18:07:51.118Z,42.20
2019-05-26T18:10:23.704Z,42.30
2019-05-26T18:12:54.504Z,42.50
2019-05-26T18:15:25.966Z,43.30
2019-05-26T18:17:56.967Z,43.90
2019-05-26T18:20:28.942Z,44.40
2019-05-26T18:22:59.834Z,44.60
2019-05-26T18:25:32.797Z,45.00
2019-05-26T18:28:03.365Z,45.10
2019-05-26T18:30:36.883Z,45.20
2019-05-26T18:33:07.588Z,45.70
2019-05-26T18:35:38.887Z,46.00
2019-05-26T18:38:09.380Z,46.10
2019-05-26T18:40:40.421Z,46.60
2019-05-26T18:43:10.817Z,47.00
2019-05-26T18:45:41.502Z,47.30
2019-05-26T18:48:14.980Z,47.50
2019-05-26T18:50:45.351Z,47.90
2019-05-26T18:53:15.669Z,48.30
2019-05-26T18:55:46.400Z,48.40
2019-05-26T18:58:16.890Z,48.80
2019-05-26T19:00:47.443Z,49.00
2019-05-26T19:03:18.532Z,49.50
2019-05-26T19:05:48.808Z,49.80
2019-05-26T19:08:19.083Z,50.20
2019-05-26T19:10:51.805Z,50.40
2019-05-26T19:13:23.609Z,50.20
2019-05-26T19:15:57.038Z,50.40
2019-05-26T19:18:39.129Z,51.10
2019-05-26T19:21:13.171Z,51.70
2019-05-26T19:23:44.080Z,52.00
2019-05-26T19:26:15.893Z,51.70
2019-05-26T19:28:50.513Z,52.00
2019-05-26T19:31:22.413Z,52.60
2019-05-26T19:33:57.209Z,52.20
2019-05-26T19:36:32.655Z,53.90
2019-05-26T19:39:03.485Z,53.70
2019-05-26T19:41:39.269Z,53.40
2019-05-26T19:44:08.286Z,53.20
2019-05-26T19:46:43.014Z,53.30
2019-05-26T19:49:15.085Z,53.20
2019-05-26T19:51:46.676Z,53.40
2019-05-26T19:54:18.473Z,54.10
2019-05-26T19:56:51.294Z,54.30
2019-05-26T19:59:26.406Z,54.40
2019-05-26T20:01:58.586Z,54.60
2019-05-26T20:04:33.533Z,53.90
2019-05-26T20:07:06.362Z,54.80
2019-05-26T20:09:37.574Z,55.50
2019-05-26T20:12:12.471Z,56.10
2019-05-26T20:14:44.274Z,55.60
2019-05-26T20:17:17.735Z,56.50
2019-05-26T20:19:48.562Z,55.50
2019-05-26T20:22:24.409Z,56.10
2019-05-26T20:24:56.074Z,56.60
2019-05-26T20:27:27.202Z,57.20
2019-05-26T20:30:02.113Z,56.60
2019-05-26T20:32:35.462Z,57.00
2019-05-26T20:35:07.978Z,58.00
2019-05-26T20:37:39.402Z,58.30
2019-05-26T20:40:10.927Z,57.70
2019-05-26T20:42:41.377Z,58.10
2019-05-26T20:45:15.914Z,57.70
2019-05-26T20:47:46.618Z,59.30
2019-05-26T20:50:28.762Z,59.00
2019-05-26T20:52:51.757Z,59.30
2019-05-26T20:55:22.435Z,59.50
2019-05-26T20:57:52.830Z,60.00
2019-05-26T21:00:23.357Z,60.50
2019-05-26T21:02:53.959Z,60.70
2019-05-26T21:05:24.456Z,60.10
2019-05-26T21:07:55.056Z,60.00
2019-05-26T21:10:25.277Z,62.30
2019-05-26T21:12:55.783Z,61.10
2019-05-26T21:15:25.994Z,61.30
2019-05-26T21:17:56.704Z,60.60
2019-05-26T21:20:28.140Z,60.80
2019-05-26T21:22:59.903Z,61.80
2019-05-26T21:25:30.469Z,62.70
2019-05-26T21:28:01.732Z,62.00
2019-05-26T21:30:31.868Z,61.90
2019-05-26T21:33:03.242Z,61.60
2019-05-26T21:35:34.097Z,60.90
2019-05-26T21:38:04.726Z,62.40
2019-05-26T21:40:35.298Z,62.80
2019-05-26T21:43:05.491Z,63.10
2019-05-26T21:45:36.252Z,64.40
2019-05-26T21:48:06.908Z,63.70
2019-05-26T21:50:37.046Z,65.30
2019-05-26T21:53:07.894Z,68.00
2019-05-26T21:55:38.391Z,68.50
2019-05-26T21:58:09.039Z,68.40
2019-05-26T22:00:43.868Z,70.40
2019-05-26T22:03:14.602Z,70.30
2019-05-26T22:05:45.225Z,70.60
2019-05-26T22:08:16.351Z,70.40
2019-05-26T22:10:46.652Z,71.40
2019-05-26T22:13:19.531Z,70.80
2019-05-26T22:15:50.927Z,71.50
2019-05-26T22:18:22.292Z,70.80
2019-05-26T22:20:53.469Z,71.90
2019-05-26T22:23:23.833Z,71.10
2019-05-26T22:25:54.106Z,71.50
2019-05-26T22:28:24.341Z,72.40
2019-05-26T22:30:55.237Z,72.10
2019-05-26T22:33:26.663Z,71.90
2019-05-26T22:35:57.361Z,72.00
2019-05-26T22:38:28.090Z,71.60
2019-05-26T22:40:58.598Z,71.80
2019-05-26T22:43:29.008Z,71.10
2019-05-26T22:46:00.612Z,71.10
2019-05-26T22:48:31.077Z,70.90
2019-05-26T22:51:01.958Z,70.70
2019-05-26T22:53:32.295Z,70.30
2019-05-26T22:56:02.879Z,70.50
2019-05-26T22:58:33.525Z,70.50
2019-05-26T23:01:03.725Z,70.90
2019-05-26T23:03:34.638Z,71.20
2019-05-26T23:06:07.837Z,71.10
2019-05-26T23:08:38.767Z,72.00
2019-05-26T23:11:09.607Z,72.00
2019-05-26T23:13:39.735Z,72.30
2019-05-26T23:16:10.281Z,72.50
2019-05-26T23:18:40.477Z,73.80
2019-05-26T23:21:10.903Z,73.50
2019-05-26T23:23:41.574Z,73.90
2019-05-26T23:26:12.538Z,74.10
2019-05-26T23:28:42.789Z,74.80
2019-05-26T23:31:13.024Z,75.20
2019-05-26T23:33:43.466Z,75.30
2019-05-26T23:38:51.463Z,74.50
2019-05-26T23:41:22.276Z,74.10
2019-05-26T23:43:55.885Z,73.30
2019-05-26T23:46:26.538Z,73.10
2019-05-26T23:48:56.625Z,72.50
2019-05-26T23:51:26.843Z,73.00
2019-05-26T23:53:57.504Z,72.70
2019-05-26T23:56:27.703Z,72.90
2019-05-26T23:58:59.181Z,73.20
